Time;durP1;ratioP1;P1;durP2;ratioP2;P2;SDS_P1;SDS_P2;PMS_P1;PMS_P2;Temp;Humidity;BMP_temperature;BMP_pressure;BME280_temperature;BME280_humidity;BME280_pressure;Samples;Min_cycle;Max_cycle;Signal;HPM_P1;HPM_P2
2023/06/04 00:01:45;;;;;;;0.93;0.93;;;15.70;96.90;;;;;;5054187;28;20582;-71
2023/06/04 00:04:11;;;;;;;1.33;1.23;;;15.50;97.20;;;;;;5053918;28;20182;-71
2023/06/04 00:06:37;;;;;;;5.53;2.77;;;15.30;97.50;;;;;;5053837;28;20451;-71
2023/06/04 00:09:03;;;;;;;2.57;2.17;;;15.30;97.60;;;;;;5053992;28;20763;-71
2023/06/04 00:11:28;;;;;;;1.70;1.57;;;15.30;97.50;;;;;;5053973;28;20232;-72
2023/06/04 00:13:54;;;;;;;1.60;1.50;;;15.20;97.30;;;;;;5053999;28;20242;-71
2023/06/04 00:16:20;;;;;;;1.70;1.60;;;15.10;97.40;;;;;;5053368;28;20655;-72
2023/06/04 00:18:45;;;;;;;1.47;0.97;;;15.10;97.50;;;;;;5053803;28;20216;-71
2023/06/04 00:21:11;;;;;;;1.73;1.63;;;15.00;97.80;;;;;;5053740;28;20669;-72
2023/06/04 00:23:37;;;;;;;1.90;1.17;;;14.90;97.90;;;;;;5053573;28;20223;-72
2023/06/04 00:26:03;;;;;;;1.00;1.00;;;14.80;98.00;;;;;;5053470;28;20224;-71
2023/06/04 00:28:29;;;;;;;0.80;0.80;;;14.70;98.20;;;;;;5053721;28;20179;-72
2023/06/04 00:30:55;;;;;;;1.33;1.03;;;14.60;98.40;;;;;;5053683;28;20405;-71
2023/06/04 00:33:20;;;;;;;2.30;2.10;;;14.30;99.90;;;;;;5053412;28;20170;-71
2023/06/04 00:35:46;;;;;;;1.17;1.17;;;14.50;98.70;;;;;;5053164;28;20201;-72
2023/06/04 00:38:12;;;;;;;1.53;1.43;;;14.50;98.70;;;;;;5053682;28;20166;-71
2023/06/04 00:40:37;;;;;;;1.10;1.10;;;14.50;98.60;;;;;;5053569;28;20183;-71
2023/06/04 00:43:03;;;;;;;1.80;1.70;;;14.60;98.40;;;;;;5053350;28;20183;-71
2023/06/04 00:45:31;;;;;;;1.13;1.13;;;14.60;98.30;;;;;;5052986;28;20597;-71
2023/06/04 00:47:56;;;;;;;1.43;1.30;;;14.50;98.10;;;;;;5053344;28;20166;-71
2023/06/04 00:50:22;;;;;;;2.17;1.33;;;14.50;98.20;;;;;;5053277;28;20431;-71
2023/06/04 00:52:50;;;;;;;3.13;2.93;;;14.50;98.40;;;;;;5053279;28;20181;-72
2023/06/04 00:55:17;;;;;;;1.97;1.77;;;14.50;98.50;;;;;;5053100;28;20198;-71
2023/06/04 00:57:43;;;;;;;3.00;2.80;;;14.40;98.50;;;;;;5053220;28;20405;-71
2023/06/04 01:00:09;;;;;;;3.27;1.67;;;14.40;98.70;;;;;;5053219;28;20925;-71
2023/06/04 01:02:38;;;;;;;2.30;1.67;;;14.30;98.50;;;;;;5053383;28;20174;-71
2023/06/04 01:05:19;;;;;;;1.93;1.83;;;14.20;98.50;;;;;;5053095;28;20437;-72
2023/06/04 01:07:46;;;;;;;1.70;1.60;;;14.20;98.60;;;;;;5053368;28;20390;-71
2023/06/04 01:10:13;;;;;;;2.00;1.80;;;14.20;98.60;;;;;;5053566;28;20435;-72
2023/06/04 01:12:43;;;;;;;1.23;1.23;;;14.10;98.70;;;;;;5053242;28;20428;-71
2023/06/04 01:15:10;;;;;;;3.17;1.97;;;14.20;99.10;;;;;;5052972;28;20452;-71
2023/06/04 01:17:42;;;;;;;3.80;2.00;;;14.20;98.70;;;;;;5052970;28;20757;-72
2023/06/04 01:20:27;;;;;;;2.60;2.40;;;14.10;98.60;;;;;;5053298;28;20402;-72
2023/06/04 01:22:56;;;;;;;3.67;1.63;;;14.00;98.60;;;;;;5052963;28;20873;-70
2023/06/04 01:25:34;;;;;;;5.13;2.70;;;14.00;98.60;;;;;;5052727;28;20420;-72
2023/06/04 01:28:02;;;;;;;3.37;2.70;;;14.00;99.00;;;;;;5053177;28;20407;-71
2023/06/04 01:30:30;;;;;;;2.20;2.10;;;14.00;99.10;;;;;;5053006;28;20417;-72
2023/06/04 01:32:56;;;;;;;1.37;1.27;;;14.00;99.20;;;;;;5053045;28;20404;-71
2023/06/04 01:35:22;;;;;;;2.77;2.53;;;13.90;99.10;;;;;;5052608;28;20556;-72
2023/06/04 01:37:48;;;;;;;3.27;2.97;;;13.90;99.40;;;;;;5052870;28;20487;-71
2023/06/04 01:40:15;;;;;;;1.73;1.63;;;14.00;99.50;;;;;;5052873;28;20397;-71
2023/06/04 01:42:41;;;;;;;2.30;2.10;;;13.90;99.10;;;;;;5052954;28;20478;-71
2023/06/04 01:45:08;;;;;;;2.00;1.90;;;13.90;99.40;;;;;;5052788;28;20429;-71
2023/06/04 01:47:34;;;;;;;1.77;1.67;;;13.90;99.10;;;;;;5052664;28;20764;-70
2023/06/04 01:50:05;;;;;;;1.83;1.73;;;13.80;99.40;;;;;;5052564;28;20432;-71
2023/06/04 01:52:31;;;;;;;6.17;2.53;;;13.80;99.60;;;;;;5052716;28;20809;-71
2023/06/04 01:54:57;;;;;;;1.97;1.87;;;13.80;99.60;;;;;;5052555;28;20487;-71
2023/06/04 01:57:22;;;;;;;1.10;1.10;;;13.80;99.90;;;;;;5052587;28;20189;-72
2023/06/04 01:59:48;;;;;;;1.43;1.30;;;13.80;99.50;;;;;;5052646;28;20401;-72
2023/06/04 02:02:15;;;;;;;1.40;1.10;;;13.80;99.80;;;;;;5052756;28;20173;-70
2023/06/04 02:04:44;;;;;;;15.13;1.63;;;13.80;99.80;;;;;;5053460;28;20194;-72
2023/06/04 02:07:13;;;;;;;1.83;1.70;;;13.80;99.80;;;;;;5056225;28;20904;-71
2023/06/04 02:09:38;;;;;;;2.60;1.40;;;13.90;99.80;;;;;;5056248;28;20397;-71
2023/06/04 02:12:04;;;;;;;1.70;1.60;;;13.80;99.60;;;;;;5056123;28;20972;-72
2023/06/04 02:14:30;;;;;;;2.00;1.87;;;13.70;99.90;;;;;;5056067;28;20314;-72
2023/06/04 02:16:57;;;;;;;2.03;1.93;;;13.70;99.90;;;;;;5055790;28;20539;-71
2023/06/04 02:19:25;;;;;;;5.10;2.70;;;13.60;99.90;;;;;;5055974;28;20167;-71
2023/06/04 02:21:51;;;;;;;0.83;0.83;;;13.50;99.90;;;;;;5055883;28;20404;-71
2023/06/04 02:24:17;;;;;;;2.90;2.67;;;13.50;99.90;;;;;;5055896;28;20822;-71
2023/06/04 02:26:43;;;;;;;1.50;1.40;;;13.40;99.90;;;;;;5055783;28;20409;-71
2023/06/04 02:29:08;;;;;;;1.70;1.60;;;13.50;99.90;;;;;;5055964;28;20202;-71
2023/06/04 02:31:34;;;;;;;2.77;2.57;;;13.60;99.90;;;;;;5055951;28;20260;-72
2023/06/04 02:33:59;;;;;;;2.23;2.03;;;13.50;99.90;;;;;;5055839;28;20281;-71
2023/06/04 02:36:25;;;;;;;1.63;1.53;;;13.40;99.90;;;;;;5055442;28;20203;-71
2023/06/04 02:38:51;;;;;;;3.07;2.80;;;13.40;99.90;;;;;;5055669;28;20583;-71
2023/06/04 02:41:16;;;;;;;2.53;2.33;;;13.40;99.90;;;;;;5055638;28;20162;-71
2023/06/04 02:43:42;;;;;;;2.57;2.40;;;13.30;99.90;;;;;;5055629;28;20186;-71
2023/06/04 02:46:08;;;;;;;1.13;1.00;;;13.30;99.90;;;;;;5055417;28;20169;-71
2023/06/04 02:48:33;;;;;;;3.17;2.00;;;13.30;99.90;;;;;;5055453;28;20997;-71
2023/06/04 02:50:59;;;;;;;1.63;1.53;;;13.20;99.90;;;;;;5055661;28;20257;-71
2023/06/04 02:53:25;;;;;;;7.90;2.47;;;13.20;99.90;;;;;;5055321;28;20192;-71
2023/06/04 02:55:52;;;;;;;1.80;1.70;;;13.30;99.90;;;;;;5055306;28;20221;-71
2023/06/04 02:58:18;;;;;;;3.30;1.50;;;13.20;99.90;;;;;;5055432;28;20781;-70
2023/06/04 03:00:45;;;;;;;1.70;1.40;;;13.30;99.90;;;;;;5055361;28;20407;-71
2023/06/04 03:03:10;;;;;;;5.20;3.70;;;13.20;99.90;;;;;;5055233;28;20407;-72
2023/06/04 03:05:36;;;;;;;3.50;2.57;;;13.10;99.90;;;;;;5054937;28;20783;-70
2023/06/04 03:08:03;;;;;;;2.10;1.87;;;13.10;99.90;;;;;;5055139;28;20192;-71
2023/06/04 03:10:29;;;;;;;4.33;2.10;;;13.10;99.90;;;;;;5055167;28;20879;-71
2023/06/04 03:12:55;;;;;;;1.63;1.53;;;13.10;99.90;;;;;;5052287;28;20783;-72
2023/06/04 03:15:21;;;;;;;1.20;1.17;;;13.00;99.90;;;;;;5051313;28;20547;-72
2023/06/04 03:17:46;;;;;;;3.57;3.10;;;13.00;99.90;;;;;;5055127;28;20499;-72
2023/06/04 03:20:12;;;;;;;3.50;3.17;;;12.90;99.90;;;;;;5054229;28;20195;-72
2023/06/04 03:22:38;;;;;;;2.13;2.03;;;12.90;99.90;;;;;;5053551;28;20181;-71
2023/06/04 03:25:05;;;;;;;4.50;2.03;;;12.90;99.90;;;;;;5054881;28;20186;-71
2023/06/04 03:27:32;;;;;;;1.47;1.37;;;12.90;99.90;;;;;;5053290;28;20915;-71
2023/06/04 03:29:57;;;;;;;2.07;1.97;;;13.00;99.90;;;;;;5054806;28;20826;-72
2023/06/04 03:32:23;;;;;;;2.83;2.00;;;13.00;99.90;;;;;;5054880;28;20429;-72
2023/06/04 03:34:48;;;;;;;3.00;1.57;;;13.00;99.90;;;;;;5054638;28;20664;-72
2023/06/04 03:37:16;;;;;;;1.90;1.80;;;12.90;99.90;;;;;;5054443;28;20173;-72
2023/06/04 03:39:42;;;;;;;2.50;2.30;;;12.90;99.90;;;;;;5054660;28;20201;-72
2023/06/04 03:42:08;;;;;;;3.97;3.07;;;12.90;99.90;;;;;;5054468;28;20439;-72
2023/06/04 03:44:33;;;;;;;3.00;2.13;;;12.90;99.90;;;;;;5054354;28;20182;-72
2023/06/04 03:46:59;;;;;;;3.90;2.80;;;12.90;99.90;;;;;;5054261;28;20222;-71
2023/06/04 03:49:25;;;;;;;2.63;2.50;;;12.80;99.90;;;;;;5054193;28;20186;-72
2023/06/04 03:51:50;;;;;;;3.97;3.67;;;12.80;99.90;;;;;;5054374;28;20232;-72
2023/06/04 03:54:16;;;;;;;3.53;1.83;;;12.90;99.90;;;;;;5054193;28;20199;-71
2023/06/04 03:56:46;;;;;;;3.13;2.43;;;12.90;99.90;;;;;;5054229;28;20233;-72
2023/06/04 03:59:12;;;;;;;5.13;2.47;;;12.90;99.90;;;;;;5054069;28;20626;-71
2023/06/04 04:01:38;;;;;;;2.63;2.30;;;12.80;99.90;;;;;;5054103;28;20453;-71
2023/06/04 04:04:04;;;;;;;2.70;2.23;;;12.90;99.90;;;;;;5054131;28;20438;-72
2023/06/04 04:06:30;;;;;;;1.23;1.23;;;12.90;99.90;;;;;;5053758;28;20411;-71
2023/06/04 04:08:56;;;;;;;2.40;2.03;;;12.90;99.90;;;;;;5053915;28;20399;-71
2023/06/04 04:11:22;;;;;;;2.90;2.23;;;12.90;99.90;;;;;;5053914;28;20238;-72
2023/06/04 04:13:48;;;;;;;2.33;2.17;;;13.00;99.90;;;;;;5053834;28;20523;-71
2023/06/04 04:16:14;;;;;;;2.07;1.97;;;13.00;99.90;;;;;;5053714;28;20205;-71
2023/06/04 04:18:42;;;;;;;4.10;2.10;;;13.00;99.90;;;;;;5053791;28;20408;-72
2023/06/04 04:21:08;;;;;;;2.30;1.37;;;12.90;99.90;;;;;;5053869;28;20448;-72
2023/06/04 04:23:35;;;;;;;1.20;1.10;;;13.00;99.90;;;;;;5053715;28;20431;-72
2023/06/04 04:26:02;;;;;;;2.67;2.43;;;13.10;99.90;;;;;;5053461;28;20574;-71
2023/06/04 04:28:28;;;;;;;3.00;2.40;;;13.20;99.90;;;;;;5053146;28;20436;-72
2023/06/04 04:30:57;;;;;;;2.77;1.67;;;13.40;99.90;;;;;;5053650;28;20488;-71
2023/06/04 04:33:25;;;;;;;4.03;3.87;;;13.70;99.90;;;;;;5053400;28;20483;-71
2023/06/04 04:35:52;;;;;;;7.30;3.13;;;13.60;99.90;;;;;;5053261;28;20491;-72
2023/06/04 04:38:23;;;;;;;4.03;3.73;;;13.80;99.90;;;;;;5053441;28;20400;-71
2023/06/04 04:40:48;;;;;;;2.10;2.00;;;14.00;99.90;;;;;;5053723;28;20879;-71
2023/06/04 04:43:14;;;;;;;1.80;1.70;;;14.40;99.90;;;;;;5053392;28;20413;-71
2023/06/04 04:45:39;;;;;;;3.23;3.03;;;14.30;99.90;;;;;;5053220;28;20224;-72
2023/06/04 04:48:05;;;;;;;2.00;1.87;;;14.40;99.90;;;;;;5053431;28;20197;-72
2023/06/04 04:50:31;;;;;;;2.03;1.70;;;14.50;99.20;;;;;;5053101;28;20186;-72
2023/06/04 04:52:58;;;;;;;3.70;2.00;;;14.70;99.40;;;;;;5053596;28;20220;-72
2023/06/04 04:55:23;;;;;;;4.30;4.00;;;14.70;99.50;;;;;;5052971;28;20553;-72
2023/06/04 04:57:49;;;;;;;2.80;1.70;;;14.80;99.90;;;;;;5053478;28;20491;-72
2023/06/04 05:00:15;;;;;;;3.40;3.20;;;15.00;99.80;;;;;;5053420;28;20169;-71
2023/06/04 05:02:41;;;;;;;1.93;1.77;;;15.40;99.70;;;;;;5053161;28;20490;-72
2023/06/04 05:05:07;;;;;;;1.60;1.50;;;15.60;98.40;;;;;;5053242;28;20523;-72
2023/06/04 05:07:32;;;;;;;1.80;1.70;;;15.80;98.00;;;;;;5053070;28;20176;-72
2023/06/04 05:09:58;;;;;;;2.53;1.80;;;15.90;97.40;;;;;;5053365;28;20252;-71
2023/06/04 05:12:29;;;;;;;2.30;1.53;;;16.00;96.90;;;;;;5053254;28;20166;-72
2023/06/04 05:14:55;;;;;;;2.30;2.10;;;16.10;97.00;;;;;;5053121;28;20518;-72
2023/06/04 05:17:29;;;;;;;1.37;1.27;;;16.20;97.10;;;;;;5052856;28;20800;-72
2023/06/04 05:20:04;;;;;;;1.83;1.73;;;16.20;96.30;;;;;;5053342;28;20169;-71
2023/06/04 05:22:32;;;;;;;2.40;2.30;;;16.20;96.20;;;;;;5053182;28;20397;-72
2023/06/04 05:24:59;;;;;;;1.30;1.20;;;16.20;96.70;;;;;;5053082;28;20453;-71
2023/06/04 05:27:25;;;;;;;1.17;1.07;;;16.40;97.00;;;;;;5052955;28;20400;-72
2023/06/04 05:29:51;;;;;;;2.47;2.30;;;16.50;97.10;;;;;;5053089;28;20397;-72
2023/06/04 05:32:17;;;;;;;1.93;1.83;;;16.70;96.90;;;;;;5053123;28;20431;-72
2023/06/04 05:34:43;;;;;;;1.70;1.60;;;16.80;96.00;;;;;;5053136;28;20600;-72
2023/06/04 05:37:09;;;;;;;2.10;2.00;;;17.00;96.20;;;;;;5052647;28;20404;-72
2023/06/04 05:39:35;;;;;;;1.07;1.03;;;17.30;96.20;;;;;;5053833;28;20493;-72
2023/06/04 05:42:01;;;;;;;1.93;1.83;;;17.70;95.70;;;;;;5056760;28;20182;-72
2023/06/04 05:44:27;;;;;;;1.70;1.63;;;18.10;95.00;;;;;;5056790;28;20433;-72
2023/06/04 05:46:52;;;;;;;1.70;1.60;;;18.40;94.00;;;;;;5056605;28;20174;-73
2023/06/04 05:49:19;;;;;;;2.27;2.07;;;18.50;93.90;;;;;;5056510;28;20197;-73
2023/06/04 05:51:45;;;;;;;1.80;1.70;;;18.70;93.70;;;;;;5056665;28;20537;-71
2023/06/04 05:54:11;;;;;;;1.40;1.17;;;18.80;93.60;;;;;;5056448;28;20433;-72
2023/06/04 05:56:36;;;;;;;1.70;1.60;;;18.90;93.40;;;;;;5056252;28;20822;-73
2023/06/04 05:59:02;;;;;;;0.97;0.87;;;18.80;94.10;;;;;;5056398;28;20197;-71
2023/06/04 06:01:28;;;;;;;1.20;1.10;;;18.80;93.60;;;;;;5056811;28;20239;-73
2023/06/04 06:03:55;;;;;;;2.17;2.00;;;18.60;94.20;;;;;;5056498;28;20189;-72
2023/06/04 06:06:21;;;;;;;1.50;1.40;;;18.50;95.00;;;;;;5055960;28;20240;-72
2023/06/04 06:08:46;;;;;;;1.20;1.10;;;18.50;95.60;;;;;;5056521;28;20407;-73
2023/06/04 06:11:12;;;;;;;1.77;1.40;;;18.60;95.20;;;;;;5056392;28;20404;-72
2023/06/04 06:13:38;;;;;;;1.57;1.47;;;18.60;94.10;;;;;;5053980;28;20193;-72
2023/06/04 06:16:04;;;;;;;1.67;1.40;;;18.60;94.90;;;;;;5055900;28;20556;-71
2023/06/04 06:18:30;;;;;;;1.83;1.73;;;18.70;94.90;;;;;;5056283;28;20176;-72
2023/06/04 06:20:56;;;;;;;2.10;1.93;;;18.90;94.30;;;;;;5055880;28;20404;-73
2023/06/04 06:23:23;;;;;;;1.43;1.33;;;18.90;94.40;;;;;;5056715;28;20471;-72
2023/06/04 06:25:51;;;;;;;0.70;0.70;;;18.70;95.60;;;;;;5054516;28;20175;-72
2023/06/04 06:28:20;;;;;;;2.23;2.13;;;18.70;95.10;;;;;;5054737;28;20421;-72
2023/06/04 06:30:47;;;;;;;1.30;1.30;;;18.80;95.50;;;;;;5055870;28;20415;-73
2023/06/04 06:33:13;;;;;;;1.93;1.23;;;18.80;91.40;;;;;;5054523;28;20412;-72
2023/06/04 06:35:38;;;;;;;1.37;1.27;;;19.00;92.00;;;;;;5053879;28;20455;-72
2023/06/04 06:38:04;;;;;;;2.20;2.00;;;20.00;90.50;;;;;;5054149;28;20254;-73
2023/06/04 06:40:32;;;;;;;1.73;0.80;;;21.40;87.50;;;;;;5054888;28;20218;-73
2023/06/04 06:42:58;;;;;;;1.97;1.87;;;22.50;81.30;;;;;;5054835;28;20201;-72
2023/06/04 06:45:24;;;;;;;1.60;1.17;;;23.60;77.20;;;;;;5054692;28;20471;-73
2023/06/04 06:47:49;;;;;;;2.03;1.73;;;23.80;73.70;;;;;;5054758;28;20171;-72
2023/06/04 06:50:15;;;;;;;1.63;1.20;;;23.50;76.00;;;;;;5054673;28;20182;-71
2023/06/04 06:52:41;;;;;;;1.53;1.43;;;23.20;76.50;;;;;;5055535;28;20170;-73
2023/06/04 06:55:07;;;;;;;2.10;1.10;;;22.90;75.10;;;;;;5055116;28;20198;-72
2023/06/04 06:57:33;;;;;;;1.23;1.23;;;22.40;77.60;;;;;;5055146;28;20769;-71
2023/06/04 06:59:59;;;;;;;2.20;1.43;;;22.10;77.10;;;;;;5055980;28;20887;-72
2023/06/04 07:02:25;;;;;;;1.20;1.20;;;22.00;79.00;;;;;;5055531;28;20431;-72
2023/06/04 07:04:50;;;;;;;1.40;1.30;;;21.90;79.90;;;;;;5055243;28;20676;-73
2023/06/04 07:07:16;;;;;;;1.77;1.67;;;21.80;80.10;;;;;;5055079;28;20876;-72
2023/06/04 07:09:42;;;;;;;1.63;1.27;;;21.50;82.50;;;;;;5055376;28;20169;-73
2023/06/04 07:12:08;;;;;;;0.80;0.80;;;21.20;79.60;;;;;;5054979;28;20486;-73
2023/06/04 07:14:33;;;;;;;1.50;1.40;;;20.80;82.90;;;;;;5054924;28;20202;-73
2023/06/04 07:17:00;;;;;;;1.83;1.60;;;20.50;85.20;;;;;;5054832;28;20205;-73
2023/06/04 07:19:25;;;;;;;2.00;1.57;;;20.40;88.00;;;;;;5055014;28;20187;-71
2023/06/04 07:21:54;;;;;;;2.03;1.87;;;20.40;89.60;;;;;;5054924;28;20487;-72
2023/06/04 07:24:19;;;;;;;1.17;1.13;;;20.40;89.30;;;;;;5053342;28;20671;-72
2023/06/04 07:26:45;;;;;;;1.40;1.30;;;20.40;87.30;;;;;;5054530;28;20440;-73
2023/06/04 07:29:10;;;;;;;2.70;1.30;;;20.30;88.30;;;;;;5054780;28;20178;-72
2023/06/04 07:31:36;;;;;;;1.90;1.80;;;20.40;88.20;;;;;;5054736;28;20643;-75
2023/06/04 07:34:02;;;;;;;1.17;1.13;;;20.60;88.90;;;;;;5054593;28;20283;-74
2023/06/04 07:36:28;;;;;;;1.33;1.23;;;21.20;89.40;;;;;;5054527;28;20616;-75
2023/06/04 07:38:54;;;;;;;1.70;1.13;;;21.60;84.90;;;;;;5054739;28;20582;-72
2023/06/04 07:41:20;;;;;;;3.00;2.13;;;21.70;84.80;;;;;;5052436;28;20401;-73
2023/06/04 07:43:45;;;;;;;1.43;1.33;;;22.00;84.40;;;;;;5054562;28;20650;-74
2023/06/04 07:46:11;;;;;;;1.23;1.10;;;22.20;80.10;;;;;;5054452;28;20411;-74
2023/06/04 07:48:36;;;;;;;2.43;2.30;;;21.90;75.20;;;;;;5054708;28;20274;-74
2023/06/04 07:51:04;;;;;;;1.17;1.17;;;21.70;74.00;;;;;;5054560;28;20176;-73
2023/06/04 07:53:30;;;;;;;2.87;1.40;;;21.50;87.00;;;;;;5054780;28;20166;-73
2023/06/04 07:55:57;;;;;;;1.03;1.03;;;21.80;73.70;;;;;;5054012;28;20847;-72
2023/06/04 07:58:23;;;;;;;1.30;1.20;;;22.00;71.30;;;;;;5054504;28;20439;-74
2023/06/04 08:00:49;;;;;;;1.23;1.23;;;22.20;69.90;;;;;;5052229;28;20956;-73
2023/06/04 08:03:15;;;;;;;1.17;1.07;;;22.30;70.70;;;;;;5052878;28;20167;-74
2023/06/04 08:05:41;;;;;;;1.00;1.00;;;22.50;73.20;;;;;;5054176;28;20613;-67
2023/06/04 08:08:07;;;;;;;1.63;1.40;;;22.60;72.40;;;;;;5051321;28;20512;-67
2023/06/04 08:10:32;;;;;;;0.87;0.80;;;22.50;71.30;;;;;;5053541;28;20412;-67
2023/06/04 08:12:58;;;;;;;1.73;1.50;;;22.20;70.00;;;;;;5053244;28;20259;-66
2023/06/04 08:15:23;;;;;;;1.70;1.60;;;21.80;71.10;;;;;;5053917;28;20209;-66
2023/06/04 08:17:49;;;;;;;0.97;0.97;;;21.50;73.60;;;;;;5054121;28;20209;-67
2023/06/04 08:20:15;;;;;;;1.43;1.33;;;21.20;75.10;;;;;;5054132;28;20200;-74
2023/06/04 08:22:41;;;;;;;1.87;1.57;;;21.00;76.10;;;;;;5053895;28;20211;-74
2023/06/04 08:25:08;;;;;;;1.47;1.37;;;20.70;74.00;;;;;;5053699;28;20438;-74
2023/06/04 08:27:34;;;;;;;1.00;0.97;;;20.30;73.40;;;;;;5053509;28;20413;-75
2023/06/04 08:30:00;;;;;;;0.93;0.93;;;20.00;74.20;;;;;;5053722;28;20558;-74
2023/06/04 08:32:26;;;;;;;1.53;1.43;;;19.80;74.60;;;;;;5053768;28;20173;-75
2023/06/04 08:34:51;;;;;;;2.50;2.20;;;19.50;77.70;;;;;;5053650;28;20432;-73
2023/06/04 08:37:18;;;;;;;1.30;1.20;;;19.30;75.00;;;;;;5053350;28;20177;-73
2023/06/04 08:39:43;;;;;;;1.17;1.17;;;19.20;75.40;;;;;;5053685;28;20165;-73
2023/06/04 08:42:37;;;;;;;0.80;0.80;;;19.10;76.60;;;;;;5053517;28;20404;-74
2023/06/04 08:45:03;;;;;;;1.30;1.20;;;19.20;74.40;;;;;;5053344;28;20603;-74
2023/06/04 08:47:30;;;;;;;1.10;1.03;;;19.50;72.70;;;;;;5053407;28;20765;-74
2023/06/04 08:50:02;;;;;;;1.40;1.33;;;19.80;75.30;;;;;;5053177;28;20432;-73
2023/06/04 08:52:28;;;;;;;1.87;1.63;;;20.20;78.70;;;;;;5053372;28;20417;-74
2023/06/04 08:54:54;;;;;;;1.20;1.10;;;20.60;79.20;;;;;;5053152;28;20437;-74
2023/06/04 08:57:20;;;;;;;1.17;0.93;;;20.90;78.50;;;;;;5053246;28;20637;-73
2023/06/04 08:59:47;;;;;;;0.90;0.90;;;21.00;74.60;;;;;;5053341;28;20407;-73
2023/06/04 09:02:16;;;;;;;0.83;0.83;;;21.30;74.10;;;;;;5053474;28;20412;-73
2023/06/04 09:04:43;;;;;;;1.47;1.00;;;21.80;69.20;;;;;;5053326;28;20430;-74
2023/06/04 09:07:12;;;;;;;3.90;1.00;;;22.10;69.50;;;;;;5053051;28;20825;-74
2023/06/04 09:09:40;;;;;;;1.00;1.00;;;22.10;66.30;;;;;;5053198;28;20419;-73
2023/06/04 09:12:09;;;;;;;1.37;1.27;;;22.00;67.20;;;;;;5053247;28;20409;-74
2023/06/04 09:14:34;;;;;;;1.37;1.27;;;22.10;67.90;;;;;;5054304;28;20431;-73
2023/06/04 09:17:00;;;;;;;1.50;1.40;;;21.90;66.00;;;;;;5055719;28;20461;-74
2023/06/04 09:19:25;;;;;;;2.63;1.53;;;21.90;69.90;;;;;;5057430;28;20534;-71
2023/06/04 09:21:56;;;;;;;0.73;0.73;;;21.70;67.50;;;;;;5055370;28;20180;-73
2023/06/04 09:24:24;;;;;;;1.90;1.67;;;21.50;68.50;;;;;;5056835;28;20766;-73
2023/06/04 09:26:51;;;;;;;1.53;1.43;;;21.30;63.90;;;;;;5055621;28;20416;-74
2023/06/04 09:29:17;;;;;;;2.00;1.33;;;21.50;66.70;;;;;;5053083;28;20419;-74
2023/06/04 09:31:57;;;;;;;1.37;0.93;;;22.30;65.00;;;;;;5055288;28;20420;-73
2023/06/04 09:34:29;;;;;;;0.63;0.63;;;22.70;60.50;;;;;;5055880;28;20424;-73
2023/06/04 09:36:55;;;;;;;1.33;1.23;;;22.80;58.90;;;;;;5052381;28;20460;-73
2023/06/04 09:39:20;;;;;;;1.50;1.40;;;22.80;59.10;;;;;;5055217;28;20910;-73
2023/06/04 09:42:00;;;;;;;1.87;1.70;;;22.60;59.30;;;;;;5055201;28;20432;-74
2023/06/04 09:44:26;;;;;;;1.10;1.00;;;22.80;60.40;;;;;;5056691;28;20531;-74
2023/06/04 09:46:56;;;;;;;1.07;1.03;;;22.50;58.80;;;;;;5056536;28;20491;-74
2023/06/04 09:49:21;;;;;;;1.60;1.50;;;22.10;58.40;;;;;;5056566;28;20501;-74
2023/06/04 09:51:48;;;;;;;2.50;1.20;;;22.50;58.70;;;;;;5056597;28;20511;-73
2023/06/04 09:54:14;;;;;;;5.60;2.10;;;23.20;57.20;;;;;;5056664;28;20194;-74
2023/06/04 09:56:43;;;;;;;0.80;0.70;;;24.00;57.30;;;;;;5056179;28;20467;-74
2023/06/04 09:59:09;;;;;;;1.27;1.17;;;24.80;57.20;;;;;;5056429;28;20173;-74
2023/06/04 10:01:43;;;;;;;0.90;0.90;;;24.80;51.90;;;;;;5056506;28;20861;-74
2023/06/04 10:04:11;;;;;;;2.33;1.60;;;24.60;52.80;;;;;;5056309;28;20402;-73
2023/06/04 10:06:40;;;;;;;1.83;0.90;;;23.80;54.00;;;;;;5056183;28;20422;-73
2023/06/04 10:09:07;;;;;;;1.30;1.20;;;23.60;56.10;;;;;;5056399;28;20412;-73
2023/06/04 10:11:44;;;;;;;1.87;0.80;;;24.00;54.70;;;;;;5056229;28;20384;-74
2023/06/04 10:14:25;;;;;;;1.33;1.23;;;24.40;56.60;;;;;;5056235;28;20402;-74
2023/06/04 10:16:52;;;;;;;1.47;1.20;;;24.60;54.30;;;;;;5056132;28;20968;-74
2023/06/04 10:19:19;;;;;;;1.37;1.27;;;24.30;53.20;;;;;;5056225;28;20400;-74
2023/06/04 10:21:45;;;;;;;1.93;1.47;;;23.60;56.50;;;;;;5055619;28;20375;-74
2023/06/04 10:24:14;;;;;;;8.23;3.03;;;23.40;53.70;;;;;;5055733;28;20513;-74
2023/06/04 10:26:40;;;;;;;2.10;1.50;;;23.00;54.80;;;;;;5053457;28;20789;-74
2023/06/04 10:29:06;;;;;;;1.10;1.00;;;23.20;53.90;;;;;;5055307;28;20794;-73
2023/06/04 10:31:32;;;;;;;2.30;1.67;;;23.30;55.10;;;;;;5055537;28;20487;-74
2023/06/04 10:33:58;;;;;;;1.57;1.10;;;23.60;55.30;;;;;;5055808;28;20291;-74
2023/06/04 10:36:25;;;;;;;1.13;1.07;;;24.70;57.00;;;;;;5055420;28;20460;-74
2023/06/04 10:38:55;;;;;;;1.40;1.30;;;26.10;51.10;;;;;;5056050;28;20169;-74
2023/06/04 10:41:21;;;;;;;1.33;1.27;;;27.10;50.40;;;;;;5055757;28;20371;-74
2023/06/04 10:43:52;;;;;;;1.90;1.20;;;27.60;50.40;;;;;;5055694;28;20429;-74
2023/06/04 10:46:20;;;;;;;3.37;1.50;;;27.70;47.50;;;;;;5055516;28;20491;-74
2023/06/04 10:48:51;;;;;;;1.60;1.50;;;27.30;49.00;;;;;;5055437;28;20417;-74
2023/06/04 10:51:37;;;;;;;1.03;1.03;;;27.20;47.80;;;;;;5055558;28;20382;-74
2023/06/04 10:54:03;;;;;;;1.10;1.00;;;26.70;47.30;;;;;;5055299;28;20514;-74
2023/06/04 10:56:32;;;;;;;1.03;0.93;;;26.30;47.70;;;;;;5054156;28;21014;-74
2023/06/04 10:58:58;;;;;;;2.40;1.73;;;25.70;48.80;;;;;;5055472;28;20407;-74
2023/06/04 11:01:26;;;;;;;1.13;0.83;;;25.30;49.60;;;;;;5055463;28;20763;-74
2023/06/04 11:03:51;;;;;;;1.63;1.53;;;24.60;50.40;;;;;;5055367;28;20457;-74
2023/06/04 11:06:17;;;;;;;1.47;1.10;;;24.70;51.50;;;;;;5053729;28;20391;-74
2023/06/04 11:08:43;;;;;;;1.13;1.10;;;24.50;50.80;;;;;;5055276;28;20257;-74
2023/06/04 11:11:13;;;;;;;6.40;2.10;;;23.70;51.20;;;;;;5055254;28;20386;-74
2023/06/04 11:13:40;;;;;;;1.37;0.90;;;23.10;52.10;;;;;;5054966;28;20519;-73
2023/06/04 11:16:19;;;;;;;1.03;0.90;;;23.20;52.90;;;;;;5054942;28;20431;-74
2023/06/04 11:18:58;;;;;;;3.20;1.37;;;23.50;54.80;;;;;;5055243;28;20416;-74
2023/06/04 11:21:24;;;;;;;2.10;1.30;;;23.80;52.30;;;;;;5054955;28;20440;-74
2023/06/04 11:23:55;;;;;;;0.97;0.97;;;23.60;51.50;;;;;;5054974;28;20403;-74
2023/06/04 11:26:22;;;;;;;1.40;1.30;;;23.80;55.50;;;;;;5054614;28;20164;-74
2023/06/04 11:28:50;;;;;;;1.27;1.03;;;24.10;51.90;;;;;;5054877;28;20447;-74
2023/06/04 11:31:16;;;;;;;3.73;1.60;;;24.00;51.90;;;;;;5054783;28;20781;-74
2023/06/04 11:33:45;;;;;;;2.33;1.67;;;23.70;51.90;;;;;;5054804;28;20433;-74
2023/06/04 11:36:26;;;;;;;1.67;1.30;;;23.50;52.70;;;;;;5054247;28;20228;-74
2023/06/04 11:38:59;;;;;;;3.37;2.27;;;23.70;55.60;;;;;;5054687;28;20445;-74
2023/06/04 11:41:28;;;;;;;1.50;1.33;;;24.20;52.60;;;;;;5055002;28;20387;-74
2023/06/04 11:43:56;;;;;;;0.93;0.93;;;24.60;51.30;;;;;;5054359;28;20772;-74
2023/06/04 11:46:22;;;;;;;2.03;1.83;;;24.30;51.70;;;;;;5054233;28;20440;-74
2023/06/04 11:48:51;;;;;;;2.73;1.73;;;24.20;53.20;;;;;;5054415;28;20464;-73
2023/06/04 11:51:16;;;;;;;1.83;1.10;;;24.40;53.30;;;;;;5054447;28;20895;-74
2023/06/04 11:53:42;;;;;;;1.07;1.00;;;24.70;50.80;;;;;;5054339;28;20432;-74
2023/06/04 11:56:08;;;;;;;1.00;1.00;;;24.80;51.80;;;;;;5053970;28;20213;-74
2023/06/04 11:58:34;;;;;;;1.60;1.50;;;24.60;50.80;;;;;;5054282;28;20409;-73
2023/06/04 12:01:01;;;;;;;1.57;1.17;;;24.20;51.70;;;;;;5054204;28;20873;-74
2023/06/04 12:03:38;;;;;;;1.90;1.40;;;24.20;55.80;;;;;;5054038;28;20385;-74
2023/06/04 12:06:18;;;;;;;1.30;1.20;;;24.30;54.40;;;;;;5054016;28;20408;-74
2023/06/04 12:08:51;;;;;;;2.33;1.40;;;24.30;53.10;;;;;;5054016;28;20405;-74
2023/06/04 12:11:35;;;;;;;1.20;1.20;;;24.00;54.70;;;;;;5054242;28;20400;-74
2023/06/04 12:14:04;;;;;;;1.30;1.20;;;23.50;53.30;;;;;;5053789;28;20428;-74
2023/06/04 12:16:31;;;;;;;1.33;1.23;;;23.30;53.70;;;;;;5052255;28;20948;-74
2023/06/04 12:19:07;;;;;;;3.33;1.67;;;23.40;52.40;;;;;;5052569;28;20409;-74
2023/06/04 12:21:33;;;;;;;2.00;1.90;;;23.70;52.10;;;;;;5053674;28;20732;-74
2023/06/04 12:24:08;;;;;;;1.43;1.30;;;24.00;51.70;;;;;;5053785;28;20436;-73
2023/06/04 12:26:37;;;;;;;2.10;1.23;;;24.10;52.00;;;;;;5053583;28;20641;-74
2023/06/04 12:29:11;;;;;;;1.47;1.37;;;24.10;51.80;;;;;;5053633;28;20435;-74
2023/06/04 12:31:38;;;;;;;2.57;1.07;;;23.70;52.50;;;;;;5053815;28;20400;-74
2023/06/04 12:34:04;;;;;;;1.33;1.30;;;23.60;52.80;;;;;;5053527;28;20439;-74
2023/06/04 12:36:29;;;;;;;1.10;1.00;;;23.50;55.60;;;;;;5053290;28;20456;-74
2023/06/04 12:39:01;;;;;;;0.80;0.80;;;23.40;52.60;;;;;;5053535;28;20174;-74
2023/06/04 12:41:27;;;;;;;1.47;1.37;;;23.40;57.00;;;;;;5053519;28;20174;-74
2023/06/04 12:43:54;;;;;;;1.57;1.47;;;23.30;58.30;;;;;;5053523;28;20424;-74
2023/06/04 12:46:20;;;;;;;1.10;1.10;;;23.70;54.30;;;;;;5053227;28;20409;-74
2023/06/04 12:48:45;;;;;;;1.13;1.03;;;24.10;58.00;;;;;;5052936;28;20429;-74